Time;durP1;ratioP1;P1;durP2;ratioP2;P2;SDS_P1;SDS_P2;PMS_P1;PMS_P2;Temp;Humidity;BMP_temperature;BMP_pressure;BME280_temperature;BME280_humidity;BME280_pressure;Samples;Min_cycle;Max_cycle;Signal;HPM_P1;HPM_P2
2022/10/16 00:00:10;;;;;;;4.60;2.63;;;15.40;99.90;;;;;;5023923;28;20431;-80
2022/10/16 00:02:55;;;;;;;3.30;3.00;;;15.40;99.90;;;;;;5023590;28;20395;-80
2022/10/16 00:05:42;;;;;;;2.63;2.43;;;15.40;99.90;;;;;;5027665;28;20411;-78
2022/10/16 00:08:26;;;;;;;3.87;2.93;;;15.40;99.90;;;;;;5025127;28;20456;-81
2022/10/16 00:11:15;;;;;;;3.23;2.37;;;15.40;99.90;;;;;;5024394;28;20404;-81
2022/10/16 00:14:01;;;;;;;3.70;2.60;;;15.40;99.90;;;;;;5023225;28;20384;-82
2022/10/16 00:16:45;;;;;;;4.53;3.07;;;15.30;99.90;;;;;;5023560;28;20394;-81
2022/10/16 00:19:29;;;;;;;2.53;2.33;;;15.40;99.90;;;;;;5023795;28;20569;-82
2022/10/16 00:22:13;;;;;;;8.00;3.50;;;15.40;99.90;;;;;;5023303;28;20415;-81
2022/10/16 00:24:58;;;;;;;3.07;2.70;;;15.40;99.90;;;;;;5023158;28;20643;-81
2022/10/16 00:27:42;;;;;;;5.53;3.33;;;15.30;99.90;;;;;;5023750;28;20498;-81
2022/10/16 00:30:27;;;;;;;4.50;3.03;;;15.30;99.90;;;;;;5022613;28;20389;-81
2022/10/16 00:33:11;;;;;;;2.70;2.50;;;15.20;99.90;;;;;;5023627;28;20449;-81
2022/10/16 00:35:58;;;;;;;3.00;2.70;;;15.30;99.90;;;;;;5023088;28;20383;-81
2022/10/16 00:38:43;;;;;;;3.00;2.80;;;15.20;99.90;;;;;;5023060;28;20895;-82
2022/10/16 00:41:28;;;;;;;3.00;2.80;;;15.20;99.90;;;;;;5022678;28;20581;-81
2022/10/16 00:44:42;;;;;;;3.50;2.53;;;15.20;99.90;;;;;;5022367;28;20415;-81
2022/10/16 00:47:33;;;;;;;3.73;2.53;;;15.20;99.90;;;;;;5022776;28;20447;-82
2022/10/16 00:50:31;;;;;;;5.10;2.60;;;15.20;99.90;;;;;;5021475;28;20395;-81
2022/10/16 00:53:17;;;;;;;2.57;2.47;;;15.10;99.90;;;;;;5022916;28;20507;-78
2022/10/16 00:56:02;;;;;;;3.97;3.03;;;15.20;99.90;;;;;;5022065;28;20411;-81
2022/10/16 00:58:47;;;;;;;2.80;2.50;;;15.10;99.90;;;;;;5022745;28;20387;-81
2022/10/16 01:01:31;;;;;;;1.93;1.83;;;15.10;99.90;;;;;;5025046;28;20395;-80
2022/10/16 01:04:15;;;;;;;8.33;2.70;;;15.10;99.90;;;;;;5027574;28;20383;-79
2022/10/16 01:07:17;;;;;;;4.57;2.10;;;15.10;99.90;;;;;;5026582;28;20450;-79
2022/10/16 01:10:20;;;;;;;3.03;2.33;;;15.20;99.90;;;;;;5025843;28;20404;-79
2022/10/16 01:13:09;;;;;;;3.97;2.50;;;15.20;99.90;;;;;;5026463;28;20472;-80
2022/10/16 01:16:09;;;;;;;3.27;2.70;;;15.20;99.90;;;;;;5025737;28;20392;-80
2022/10/16 01:19:03;;;;;;;3.50;2.20;;;15.20;99.90;;;;;;5025094;28;20420;-79
2022/10/16 01:21:51;;;;;;;2.13;1.93;;;15.20;99.90;;;;;;5026250;28;20412;-79
2022/10/16 01:24:41;;;;;;;4.80;1.90;;;15.20;99.90;;;;;;5025147;28;20454;-81
2022/10/16 01:27:30;;;;;;;2.80;2.37;;;15.20;99.90;;;;;;5022900;28;20455;-81
2022/10/16 01:30:24;;;;;;;2.27;2.17;;;15.20;99.90;;;;;;5022260;28;20743;-82
2022/10/16 01:33:18;;;;;;;2.77;2.07;;;15.20;99.90;;;;;;5023390;28;20431;-81
2022/10/16 01:36:11;;;;;;;7.73;2.70;;;15.20;99.90;;;;;;5022367;28;20845;-82
2022/10/16 01:38:59;;;;;;;3.87;2.43;;;15.20;99.90;;;;;;5024119;28;20383;-81
2022/10/16 01:41:51;;;;;;;3.40;2.43;;;15.20;99.90;;;;;;5023184;28;20465;-81
2022/10/16 01:44:37;;;;;;;2.33;2.13;;;15.10;99.90;;;;;;5022770;28;20436;-81
2022/10/16 01:47:25;;;;;;;3.70;3.07;;;15.20;99.90;;;;;;5022764;28;20439;-81
2022/10/16 01:50:09;;;;;;;2.73;2.20;;;15.20;99.90;;;;;;5022915;28;20447;-81
2022/10/16 01:52:56;;;;;;;2.23;2.07;;;15.20;99.90;;;;;;5022855;28;20387;-80
2022/10/16 01:55:44;;;;;;;3.27;2.33;;;15.30;99.90;;;;;;5022707;28;20395;-81
2022/10/16 01:58:34;;;;;;;7.33;2.23;;;15.40;99.90;;;;;;5022608;28;20456;-81
2022/10/16 02:01:22;;;;;;;2.50;2.10;;;15.30;99.90;;;;;;5022513;28;20384;-81
2022/10/16 02:04:15;;;;;;;4.57;2.17;;;15.40;99.90;;;;;;5020936;28;20435;-81
2022/10/16 02:07:00;;;;;;;3.87;2.57;;;15.30;99.90;;;;;;5022351;28;20531;-81
2022/10/16 02:09:44;;;;;;;3.70;2.10;;;15.40;99.90;;;;;;5021544;28;20435;-81
2022/10/16 02:12:32;;;;;;;2.50;2.30;;;15.40;99.90;;;;;;5021714;28;20391;-81
2022/10/16 02:15:16;;;;;;;3.17;2.10;;;15.30;99.90;;;;;;5021563;28;20383;-81
2022/10/16 02:18:04;;;;;;;2.77;2.40;;;15.30;99.90;;;;;;5022963;28;20392;-81
2022/10/16 02:21:19;;;;;;;2.03;1.87;;;15.30;99.90;;;;;;5025262;28;20459;-81
2022/10/16 02:24:24;;;;;;;5.50;2.00;;;15.30;99.90;;;;;;5025672;28;20384;-82
2022/10/16 02:27:15;;;;;;;8.40;3.40;;;15.20;99.90;;;;;;5025272;28;20470;-81
2022/10/16 02:30:08;;;;;;;2.30;2.10;;;15.30;99.90;;;;;;5024210;28;20388;-81
2022/10/16 02:32:55;;;;;;;3.37;2.63;;;15.20;99.90;;;;;;5024956;28;20396;-81
2022/10/16 02:35:40;;;;;;;2.83;1.97;;;15.20;99.90;;;;;;5025463;28;20415;-81
2022/10/16 02:38:26;;;;;;;3.03;2.77;;;15.20;99.90;;;;;;5025572;28;20388;-81
2022/10/16 02:41:10;;;;;;;2.87;2.07;;;15.20;99.90;;;;;;5025267;28;20380;-81
2022/10/16 02:43:54;;;;;;;1.97;1.87;;;15.20;99.90;;;;;;5024511;28;20388;-81
2022/10/16 02:46:39;;;;;;;2.60;2.00;;;15.20;99.90;;;;;;5023932;28;20447;-79
2022/10/16 02:49:23;;;;;;;4.70;2.10;;;15.20;99.90;;;;;;5024517;28;20415;-81
2022/10/16 02:52:07;;;;;;;3.37;2.33;;;15.20;99.90;;;;;;5024911;28;20396;-81
2022/10/16 02:54:51;;;;;;;8.93;2.97;;;15.20;99.90;;;;;;5024897;28;20392;-79
2022/10/16 02:57:36;;;;;;;2.80;2.10;;;15.30;99.90;;;;;;5024982;28;20420;-81
2022/10/16 03:00:21;;;;;;;2.90;2.33;;;15.30;99.90;;;;;;5024418;28;20396;-81
2022/10/16 03:03:05;;;;;;;2.00;1.90;;;15.30;99.90;;;;;;5024255;28;20442;-82
2022/10/16 03:05:50;;;;;;;2.13;2.03;;;15.30;99.90;;;;;;5024807;28;20395;-81
2022/10/16 03:08:34;;;;;;;2.57;2.37;;;15.30;99.90;;;;;;5023882;28;20908;-82
2022/10/16 03:11:18;;;;;;;5.03;2.00;;;15.40;99.90;;;;;;5024608;28;20756;-81
2022/10/16 03:14:02;;;;;;;4.77;1.93;;;15.30;99.90;;;;;;5024609;28;20893;-81
2022/10/16 03:16:46;;;;;;;2.60;2.40;;;15.30;99.90;;;;;;5024944;28;20439;-81
2022/10/16 03:19:30;;;;;;;3.83;2.97;;;15.40;99.90;;;;;;5024585;28;20525;-79
2022/10/16 03:22:15;;;;;;;2.40;2.20;;;15.30;99.90;;;;;;5024800;28;20892;-82
2022/10/16 03:24:59;;;;;;;2.87;2.57;;;15.40;99.90;;;;;;5025273;28;20432;-81
2022/10/16 03:27:43;;;;;;;3.30;2.17;;;15.40;99.90;;;;;;5024774;28;20539;-81
2022/10/16 03:30:27;;;;;;;2.40;2.13;;;15.40;99.90;;;;;;5025117;28;20523;-81
2022/10/16 03:33:12;;;;;;;3.17;1.97;;;15.50;99.90;;;;;;5024576;28;20460;-81
2022/10/16 03:35:56;;;;;;;5.53;2.10;;;15.40;99.90;;;;;;5023646;28;20383;-81
2022/10/16 03:38:40;;;;;;;4.83;1.90;;;15.40;99.90;;;;;;5024594;28;20543;-81
2022/10/16 03:41:24;;;;;;;4.50;2.10;;;15.40;99.90;;;;;;5029463;28;20404;-79
2022/10/16 03:44:08;;;;;;;2.20;2.00;;;15.40;99.90;;;;;;5025619;28;20423;-81
2022/10/16 03:46:53;;;;;;;3.97;2.20;;;15.40;99.90;;;;;;5020084;28;20462;-82
2022/10/16 03:49:37;;;;;;;2.73;2.10;;;15.50;99.90;;;;;;5022119;28;20414;-81
2022/10/16 03:52:21;;;;;;;4.37;2.00;;;15.40;99.90;;;;;;5022782;28;20391;-81
2022/10/16 03:55:06;;;;;;;1.73;1.57;;;15.40;99.90;;;;;;5003820;28;20384;-82
2022/10/16 03:57:50;;;;;;;2.10;1.90;;;15.40;99.90;;;;;;5004198;28;20890;-81
2022/10/16 04:00:35;;;;;;;2.27;2.17;;;15.40;99.90;;;;;;5004157;28;20417;-81
2022/10/16 04:03:19;;;;;;;2.33;2.20;;;15.50;99.90;;;;;;5004354;28;20385;-81
2022/10/16 04:06:03;;;;;;;2.33;1.80;;;15.50;99.90;;;;;;5021337;28;20455;-81
2022/10/16 04:08:47;;;;;;;2.50;2.30;;;15.50;99.90;;;;;;5024325;28;20388;-81
2022/10/16 04:11:32;;;;;;;3.37;1.73;;;15.40;99.90;;;;;;5023710;28;20391;-81
2022/10/16 04:14:16;;;;;;;1.67;1.57;;;15.40;99.90;;;;;;5024176;28;20387;-82
2022/10/16 04:17:00;;;;;;;2.27;1.80;;;15.40;99.90;;;;;;5023598;28;20392;-81
2022/10/16 04:19:44;;;;;;;2.70;2.50;;;15.40;99.90;;;;;;5024079;28;20463;-81
2022/10/16 04:22:28;;;;;;;2.10;2.00;;;15.40;99.90;;;;;;5025405;28;20603;-81
2022/10/16 04:25:12;;;;;;;2.57;2.33;;;15.30;99.90;;;;;;5026746;28;20388;-78
2022/10/16 04:27:58;;;;;;;2.70;2.30;;;15.40;99.90;;;;;;5028374;28;20531;-81
2022/10/16 04:30:42;;;;;;;2.80;2.30;;;15.30;99.90;;;;;;5027062;28;20416;-79
2022/10/16 04:33:27;;;;;;;4.87;1.90;;;15.30;99.90;;;;;;5028669;28;20388;-81
2022/10/16 04:36:11;;;;;;;4.97;2.60;;;15.30;99.90;;;;;;5022747;28;20384;-81
2022/10/16 04:38:55;;;;;;;5.23;2.17;;;15.40;99.90;;;;;;5023114;28;20407;-82
2022/10/16 04:41:39;;;;;;;9.50;3.03;;;15.40;99.90;;;;;;5022215;28;20523;-81
2022/10/16 04:44:24;;;;;;;2.00;1.90;;;15.40;99.90;;;;;;5023835;28;20405;-81
2022/10/16 04:47:08;;;;;;;4.70;2.10;;;15.40;99.90;;;;;;5021462;28;20451;-81
2022/10/16 04:49:52;;;;;;;3.00;2.40;;;15.40;99.90;;;;;;5022790;28;20392;-82
2022/10/16 04:52:36;;;;;;;2.30;2.10;;;15.30;99.90;;;;;;5023279;28;20380;-81
2022/10/16 04:55:21;;;;;;;4.23;2.43;;;15.30;99.90;;;;;;5023630;28;20430;-81
2022/10/16 04:58:05;;;;;;;3.67;2.83;;;15.40;99.90;;;;;;5022970;28;20427;-81
2022/10/16 05:00:49;;;;;;;2.43;1.97;;;15.40;99.90;;;;;;5022940;28;20435;-80
2022/10/16 05:03:34;;;;;;;3.73;3.03;;;15.40;99.90;;;;;;5022300;28;20404;-81
2022/10/16 05:06:18;;;;;;;2.50;2.27;;;15.30;99.90;;;;;;5022151;28;20471;-80
2022/10/16 05:09:03;;;;;;;2.60;2.13;;;15.30;99.90;;;;;;5022512;28;20423;-81
2022/10/16 05:11:47;;;;;;;3.20;2.60;;;15.30;99.90;;;;;;5021971;28;20895;-81
2022/10/16 05:14:31;;;;;;;4.57;2.50;;;15.30;99.90;;;;;;5020883;28;20857;-81
2022/10/16 05:17:15;;;;;;;2.73;2.53;;;15.30;99.90;;;;;;5021501;28;20383;-81
2022/10/16 05:19:59;;;;;;;3.00;2.60;;;15.30;99.90;;;;;;5021744;28;20486;-81
2022/10/16 05:22:44;;;;;;;2.40;2.20;;;15.30;99.90;;;;;;5022003;28;20388;-81
2022/10/16 05:25:28;;;;;;;3.33;3.03;;;15.30;99.90;;;;;;5021955;28;20920;-80
2022/10/16 05:28:12;;;;;;;2.27;2.07;;;15.30;99.90;;;;;;5021429;28;20395;-81
2022/10/16 05:30:57;;;;;;;3.60;2.60;;;15.30;99.90;;;;;;5021787;28;20404;-81
2022/10/16 05:33:42;;;;;;;4.93;2.70;;;15.40;99.90;;;;;;5021550;28;20391;-81
2022/10/16 05:36:27;;;;;;;3.70;3.00;;;15.30;99.90;;;;;;5021735;28;20399;-81
2022/10/16 05:39:11;;;;;;;9.80;2.67;;;15.30;99.90;;;;;;5021799;28;20387;-81
2022/10/16 05:41:56;;;;;;;2.40;2.23;;;15.30;99.90;;;;;;5021960;28;20383;-80
2022/10/16 05:44:40;;;;;;;3.53;2.30;;;15.40;99.90;;;;;;5021717;28;20387;-80
2022/10/16 05:47:24;;;;;;;5.97;2.53;;;15.40;99.90;;;;;;5020368;28;20971;-81
2022/10/16 05:50:08;;;;;;;7.60;2.87;;;15.30;99.90;;;;;;5022480;28;20400;-81
2022/10/16 05:52:53;;;;;;;5.70;2.77;;;15.30;99.90;;;;;;5026306;28;20863;-81
2022/10/16 05:55:37;;;;;;;2.47;2.27;;;15.30;99.90;;;;;;5025880;28;20446;-80
2022/10/16 05:58:22;;;;;;;7.00;3.43;;;15.30;99.90;;;;;;5026318;28;20391;-81
2022/10/16 06:01:11;;;;;;;5.73;2.50;;;15.30;99.90;;;;;;5026054;28;20427;-80
2022/10/16 06:03:56;;;;;;;2.90;2.70;;;15.40;99.90;;;;;;5025977;28;20391;-80
2022/10/16 06:06:40;;;;;;;2.63;2.43;;;15.40;99.90;;;;;;5026225;28;20451;-81
2022/10/16 06:09:24;;;;;;;5.03;2.23;;;15.30;99.90;;;;;;5026424;28;20394;-81
2022/10/16 06:12:08;;;;;;;6.20;2.60;;;15.40;99.90;;;;;;5025458;28;20391;-81
2022/10/16 06:14:53;;;;;;;2.83;2.57;;;15.40;99.90;;;;;;5025956;28;20419;-80
2022/10/16 06:17:37;;;;;;;4.53;2.43;;;15.40;99.90;;;;;;5025418;28;20407;-81
2022/10/16 06:20:21;;;;;;;2.43;2.23;;;15.40;99.90;;;;;;5025659;28;20455;-81
2022/10/16 06:23:05;;;;;;;3.87;2.30;;;15.40;99.90;;;;;;5025712;28;20447;-81
2022/10/16 06:25:49;;;;;;;3.90;2.43;;;15.40;99.90;;;;;;5025639;28;20416;-80
2022/10/16 06:28:33;;;;;;;7.70;2.50;;;15.40;99.90;;;;;;5025494;28;20403;-80
2022/10/16 06:31:18;;;;;;;2.73;2.53;;;15.40;99.90;;;;;;5024767;28;20439;-81
2022/10/16 06:34:04;;;;;;;3.57;2.27;;;15.40;99.90;;;;;;5025496;28;20884;-81
2022/10/16 06:36:48;;;;;;;2.20;2.00;;;15.30;99.90;;;;;;5025245;28;20395;-81
2022/10/16 06:39:32;;;;;;;2.77;2.50;;;15.40;99.90;;;;;;5024560;28;20391;-79
2022/10/16 06:42:17;;;;;;;2.27;2.07;;;15.40;99.90;;;;;;5024410;28;20408;-81
2022/10/16 06:45:01;;;;;;;2.20;2.00;;;15.40;99.90;;;;;;5026269;28;20387;-81
2022/10/16 06:47:45;;;;;;;3.57;2.00;;;15.40;99.90;;;;;;5024004;28;20535;-81
2022/10/16 06:50:29;;;;;;;5.80;2.33;;;15.50;99.90;;;;;;5024439;28;20412;-81
2022/10/16 06:53:13;;;;;;;5.20;3.00;;;15.50;99.90;;;;;;5024011;28;20384;-81
2022/10/16 06:55:58;;;;;;;6.57;2.20;;;15.50;99.90;;;;;;5024187;28;20477;-80
2022/10/16 06:58:42;;;;;;;7.17;2.93;;;15.50;99.90;;;;;;5023288;28;20411;-81
2022/10/16 07:01:27;;;;;;;3.20;2.53;;;15.50;99.90;;;;;;5002293;28;20595;-80
2022/10/16 07:04:12;;;;;;;3.17;2.87;;;15.60;99.90;;;;;;5002495;28;20405;-80
2022/10/16 07:06:56;;;;;;;3.40;2.77;;;15.60;99.90;;;;;;5003173;28;20460;-81
2022/10/16 07:09:40;;;;;;;3.13;2.83;;;15.60;99.90;;;;;;5002459;28;20937;-80
2022/10/16 07:12:25;;;;;;;5.40;3.00;;;15.60;99.90;;;;;;4988980;28;20397;-81
2022/10/16 07:15:09;;;;;;;2.53;2.40;;;15.50;99.90;;;;;;5003023;28;20452;-81
2022/10/16 07:17:53;;;;;;;11.03;3.23;;;15.50;99.90;;;;;;5003048;28;20460;-80
2022/10/16 07:20:38;;;;;;;4.50;2.53;;;15.50;99.90;;;;;;5002474;28;20449;-81
2022/10/16 07:23:22;;;;;;;4.23;2.00;;;15.50;99.90;;;;;;4989969;28;20809;-81
2022/10/16 07:26:07;;;;;;;2.80;2.60;;;15.50;99.90;;;;;;5001630;28;20448;-81
2022/10/16 07:28:52;;;;;;;4.00;2.17;;;15.50;99.90;;;;;;5002558;28;20388;-81
2022/10/16 07:31:37;;;;;;;5.17;2.57;;;15.60;99.90;;;;;;5007828;28;20751;-80
2022/10/16 07:34:22;;;;;;;6.63;2.70;;;15.60;99.90;;;;;;5023904;28;20389;-81
2022/10/16 07:37:06;;;;;;;3.43;3.13;;;15.70;99.90;;;;;;5023973;28;20384;-81
2022/10/16 07:39:50;;;;;;;2.90;2.60;;;15.70;99.90;;;;;;5023836;28;20923;-80
2022/10/16 07:42:34;;;;;;;2.80;2.40;;;15.70;99.90;;;;;;5023275;28;20396;-80
2022/10/16 07:45:18;;;;;;;6.17;3.40;;;15.80;99.90;;;;;;5023233;28;20400;-81
2022/10/16 07:48:03;;;;;;;3.07;2.77;;;15.80;99.90;;;;;;5020972;28;20443;-79
2022/10/16 07:50:47;;;;;;;3.93;2.87;;;15.90;99.90;;;;;;5007736;28;20411;-81
2022/10/16 07:53:32;;;;;;;4.10;2.90;;;15.90;99.90;;;;;;5022994;28;20439;-80
2022/10/16 07:56:18;;;;;;;2.90;2.70;;;16.00;99.90;;;;;;5023326;28;20431;-80
2022/10/16 07:59:05;;;;;;;4.27;2.70;;;16.00;99.90;;;;;;5022448;28;20412;-81
2022/10/16 08:01:50;;;;;;;2.87;2.60;;;16.00;99.90;;;;;;5023320;28;20415;-81
2022/10/16 08:04:34;;;;;;;6.13;3.30;;;16.10;99.90;;;;;;5021683;28;20474;-80
2022/10/16 08:07:18;;;;;;;7.73;3.70;;;16.10;99.90;;;;;;5022593;28;20494;-81
2022/10/16 08:10:02;;;;;;;4.67;3.10;;;16.20;99.90;;;;;;5022867;28;20388;-81
2022/10/16 08:12:46;;;;;;;8.93;3.47;;;16.20;99.90;;;;;;5023299;28;20731;-81
2022/10/16 08:15:31;;;;;;;3.53;3.23;;;16.20;99.90;;;;;;5022976;28;20388;-80
2022/10/16 08:18:16;;;;;;;3.67;3.37;;;16.20;99.90;;;;;;5021802;28;20388;-81
2022/10/16 08:21:00;;;;;;;3.60;3.30;;;16.30;99.90;;;;;;5021030;28;20975;-81
2022/10/16 08:23:44;;;;;;;2.80;2.57;;;16.50;99.90;;;;;;5021757;28;20400;-81
2022/10/16 08:26:29;;;;;;;3.00;2.80;;;16.60;99.90;;;;;;5020336;28;20851;-81
2022/10/16 08:29:14;;;;;;;3.90;3.33;;;16.80;99.90;;;;;;5006856;28;20848;-81
2022/10/16 08:31:58;;;;;;;4.07;3.60;;;16.80;99.90;;;;;;5021788;28;20461;-81
2022/10/16 08:34:42;;;;;;;2.70;2.50;;;16.80;99.90;;;;;;5022141;28;20431;-81
2022/10/16 08:37:30;;;;;;;4.03;3.40;;;16.70;99.90;;;;;;5021590;28;20456;-80
2022/10/16 08:40:20;;;;;;;4.27;3.07;;;16.70;99.90;;;;;;5021996;28;20396;-81
2022/10/16 08:43:22;;;;;;;6.00;2.80;;;16.70;99.90;;;;;;5022231;28;20388;-81
2022/10/16 08:46:34;;;;;;;3.20;3.00;;;16.70;99.90;;;;;;5021851;28;20779;-80
2022/10/16 08:49:19;;;;;;;6.40;4.20;;;16.70;99.90;;;;;;5021297;28;20479;-81
2022/10/16 08:52:03;;;;;;;2.70;2.50;;;16.80;99.90;;;;;;5020833;28;20519;-79
2022/10/16 08:54:53;;;;;;;4.20;3.40;;;16.80;99.90;;;;;;5021704;28;20388;-81
2022/10/16 08:57:37;;;;;;;3.17;2.87;;;16.80;99.90;;;;;;5020821;28;20451;-81
2022/10/16 09:00:21;;;;;;;25.07;22.40;;;16.80;99.90;;;;;;5021607;28;20397;-80
2022/10/16 09:03:18;;;;;;;5.27;4.87;;;16.90;99.90;;;;;;5021343;28;20403;-80
2022/10/16 09:06:17;;;;;;;3.23;2.93;;;17.00;99.90;;;;;;5021576;28;20549;-81
2022/10/16 09:09:35;;;;;;;5.67;2.67;;;17.10;99.90;;;;;;5021747;28;20404;-81
2022/10/16 09:12:27;;;;;;;4.17;2.70;;;17.20;99.90;;;;;;5020755;28;20388;-78
2022/10/16 09:15:34;;;;;;;4.83;3.63;;;17.10;99.90;;;;;;5021562;28;20881;-80
2022/10/16 09:18:30;;;;;;;4.60;2.93;;;17.10;99.90;;;;;;5024085;28;20452;-79
2022/10/16 09:21:23;;;;;;;4.63;2.87;;;17.10;99.90;;;;;;4983861;28;20409;-82
2022/10/16 09:24:13;;;;;;;3.40;3.10;;;17.10;99.90;;;;;;4983586;28;20389;-82
2022/10/16 09:26:57;;;;;;;3.37;2.47;;;17.10;99.90;;;;;;4982639;28;20456;-82
2022/10/16 09:29:41;;;;;;;3.43;3.00;;;17.10;99.90;;;;;;4981924;28;20430;-82
2022/10/16 09:32:27;;;;;;;4.40;2.90;;;17.10;99.90;;;;;;4982880;28;20401;-82
2022/10/16 09:35:31;;;;;;;6.00;2.80;;;17.10;99.90;;;;;;4981749;28;20882;-81
2022/10/16 09:38:29;;;;;;;3.20;2.90;;;17.10;99.90;;;;;;4981288;28;20430;-81
2022/10/16 09:41:19;;;;;;;3.20;2.50;;;17.20;99.90;;;;;;4982220;28;20409;-82
2022/10/16 09:44:26;;;;;;;3.63;2.70;;;17.20;99.90;;;;;;4984552;28;20565;-82
2022/10/16 09:47:21;;;;;;;3.10;2.30;;;17.30;99.90;;;;;;4984656;28;20468;-80
2022/10/16 09:50:23;;;;;;;2.97;2.77;;;17.40;99.90;;;;;;4984133;28;20449;-81
2022/10/16 09:53:15;;;;;;;3.10;2.03;;;17.50;99.90;;;;;;4984513;28;20436;-82
2022/10/16 09:55:59;;;;;;;5.37;2.10;;;17.50;99.90;;;;;;4983504;28;20418;-82
2022/10/16 09:58:51;;;;;;;3.80;2.30;;;17.50;99.90;;;;;;4969625;28;20514;-82
2022/10/16 10:01:43;;;;;;;11.50;3.07;;;17.50;99.90;;;;;;4982631;28;20523;-81
2022/10/16 10:04:40;;;;;;;3.77;2.80;;;17.50;99.90;;;;;;4982960;28;20416;-81
2022/10/16 10:07:33;;;;;;;2.77;2.23;;;17.50;99.90;;;;;;4985883;28;20445;-82
2022/10/16 10:10:25;;;;;;;3.27;2.97;;;17.50;99.90;;;;;;4971183;28;20446;-82
2022/10/16 10:13:20;;;;;;;2.73;2.53;;;17.60;99.90;;;;;;4970687;28;20390;-81
2022/10/16 10:16:04;;;;;;;2.30;2.10;;;17.60;99.90;;;;;;4969050;28;20433;-81
2022/10/16 10:18:58;;;;;;;6.13;3.20;;;17.70;99.90;;;;;;4970873;28;20401;-81
2022/10/16 10:21:43;;;;;;;3.77;3.03;;;17.80;99.90;;;;;;5003218;28;20405;-82
2022/10/16 10:24:27;;;;;;;3.00;2.70;;;17.70;99.90;;;;;;4989470;28;20443;-81
2022/10/16 10:27:18;;;;;;;5.40;3.53;;;17.70;99.90;;;;;;5004026;28;20471;-81
2022/10/16 10:30:24;;;;;;;4.47;3.00;;;17.80;99.90;;;;;;5024143;28;20459;-81
2022/10/16 10:33:28;;;;;;;2.90;2.60;;;17.90;99.90;;;;;;5025944;28;20433;-82
2022/10/16 10:36:24;;;;;;;6.50;3.10;;;17.90;99.90;;;;;;5011339;28;20411;-80
2022/10/16 10:39:29;;;;;;;3.00;2.80;;;17.80;99.90;;;;;;5026424;28;20446;-81
2022/10/16 10:42:28;;;;;;;4.30;1.80;;;17.80;99.90;;;;;;5028035;28;20416;-82
2022/10/16 10:45:25;;;;;;;4.00;3.10;;;17.80;99.90;;;;;;5025335;28;20412;-82
2022/10/16 10:48:49;;;;;;;2.93;2.63;;;17.80;99.90;;;;;;5025797;28;20508;-81
2022/10/16 10:51:59;;;;;;;4.63;2.83;;;17.90;99.90;;;;;;5025312;28;20864;-81
2022/10/16 10:54:58;;;;;;;4.80;2.20;;;17.90;99.90;;;;;;5026246;28;20391;-82
2022/10/16 10:57:59;;;;;;;2.80;2.17;;;18.00;99.90;;;;;;5024809;28;20516;-82
2022/10/16 11:00:59;;;;;;;3.60;3.30;;;18.10;99.90;;;;;;5011076;28;20498;-82
2022/10/16 11:04:08;;;;;;;6.40;2.67;;;18.20;99.90;;;;;;5025939;28;20388;-81
2022/10/16 11:07:04;;;;;;;4.47;2.67;;;18.30;99.90;;;;;;5004440;28;20455;-81
2022/10/16 11:09:55;;;;;;;5.33;2.50;;;18.40;99.90;;;;;;4977688;28;20519;-81
2022/10/16 11:12:45;;;;;;;4.50;3.03;;;18.60;99.90;;;;;;5006084;28;20393;-82
2022/10/16 11:15:35;;;;;;;2.73;2.53;;;19.00;99.90;;;;;;4990501;28;20460;-81
2022/10/16 11:18:24;;;;;;;5.10;2.93;;;19.30;99.90;;;;;;5003114;28;20393;-81
2022/10/16 11:21:14;;;;;;;5.33;2.40;;;19.30;99.90;;;;;;5001248;28;20440;-81
2022/10/16 11:24:04;;;;;;;2.83;2.50;;;19.10;99.90;;;;;;4988445;28;20507;-80
2022/10/16 11:26:53;;;;;;;5.00;3.70;;;19.20;99.90;;;;;;5002172;28;20571;-80
2022/10/16 11:29:48;;;;;;;2.93;2.73;;;19.10;99.90;;;;;;5003040;28;20389;-81
2022/10/16 11:32:45;;;;;;;4.10;2.90;;;19.00;99.90;;;;;;5001780;28;20496;-82
2022/10/16 11:35:48;;;;;;;2.13;1.93;;;18.90;99.90;;;;;;4974307;28;20412;-82
2022/10/16 11:38:44;;;;;;;2.73;2.53;;;18.80;99.90;;;;;;5020366;28;20514;-81
2022/10/16 11:41:45;;;;;;;3.93;2.80;;;18.70;99.90;;;;;;5022631;28;20399;-82
2022/10/16 11:44:48;;;;;;;4.23;3.53;;;18.60;99.90;;;;;;5022830;28;20395;-81
2022/10/16 11:47:55;;;;;;;4.57;2.90;;;18.40;99.90;;;;;;5022866;28;20451;-80
2022/10/16 11:50:58;;;;;;;3.53;3.23;;;18.30;99.90;;;;;;5022447;28;20391;-81
2022/10/16 11:53:55;;;;;;;5.50;3.60;;;18.20;99.90;;;;;;5025025;28;20456;-79
2022/10/16 11:56:41;;;;;;;6.50;3.73;;;18.10;99.90;;;;;;5025528;28;20431;-79
2022/10/16 11:59:36;;;;;;;6.40;4.07;;;18.00;99.90;;;;;;5025584;28;20395;-79
2022/10/16 12:02:54;;;;;;;6.80;3.50;;;18.00;99.90;;;;;;5025779;28;20396;-80
2022/10/16 12:05:55;;;;;;;6.37;5.77;;;18.90;99.90;;;;;;5024308;28;20407;-79
2022/10/16 12:08:40;;;;;;;5.73;5.13;;;19.60;99.90;;;;;;5025113;28;20804;-80
2022/10/16 12:11:37;;;;;;;2.83;2.63;;;20.10;99.90;;;;;;5026483;28;20384;-79
2022/10/16 12:14:35;;;;;;;4.40;3.53;;;20.80;99.90;;;;;;5023230;28;20408;-81
2022/10/16 12:17:37;;;;;;;5.40;3.00;;;21.20;99.90;;;;;;5023538;28;20391;-80
2022/10/16 12:20:25;;;;;;;2.57;2.40;;;21.90;99.90;;;;;;5023271;28;20478;-80
2022/10/16 12:23:22;;;;;;;4.07;3.20;;;22.80;99.90;;;;;;5022457;28;20474;-81
2022/10/16 12:26:06;;;;;;;3.07;2.77;;;23.60;99.90;;;;;;5023515;28;20462;-79
2022/10/16 12:28:51;;;;;;;3.00;2.80;;;23.60;99.90;;;;;;5007331;28;20391;-80
2022/10/16 12:31:43;;;;;;;4.23;2.90;;;23.40;99.90;;;;;;5021273;28;20891;-80
2022/10/16 12:34:42;;;;;;;8.30;2.87;;;23.50;99.90;;;;;;5022474;28;20499;-81
2022/10/16 12:37:32;;;;;;;3.87;2.97;;;23.70;99.90;;;;;;5022741;28;20411;-79
2022/10/16 12:40:27;;;;;;;2.93;2.50;;;24.20;99.90;;;;;;5027554;28;20403;-80
2022/10/16 12:43:26;;;;;;;2.90;2.70;;;24.10;99.90;;;;;;5020797;28;20395;-81
2022/10/16 12:46:37;;;;;;;2.80;2.23;;;24.20;99.90;;;;;;5021329;28;20402;-80
2022/10/16 12:49:31;;;;;;;2.70;2.43;;;23.70;99.90;;;;;;5021602;28;20383;-81
2022/10/16 12:52:37;;;;;;;3.43;2.80;;;24.00;99.90;;;;;;5012486;28;20459;-79
2022/10/16 12:55:23;;;;;;;3.43;2.47;;;24.40;99.90;;;;;;5002185;28;20872;-80
2022/10/16 12:58:33;;;;;;;2.70;2.50;;;23.90;99.90;;;;;;5002374;28;20819;-79
2022/10/16 13:01:42;;;;;;;2.83;2.53;;;23.70;99.90;;;;;;5002279;28;20399;-82
2022/10/16 13:04:51;;;;;;;2.30;2.20;;;25.00;99.90;;;;;;5004872;28;20467;-82
2022/10/16 13:08:02;;;;;;;2.63;2.43;;;25.30;99.90;;;;;;5004941;28;20447;-81
2022/10/16 13:11:03;;;;;;;2.80;2.60;;;23.70;99.90;;;;;;4991187;28;20492;-82
2022/10/16 13:14:14;;;;;;;3.00;2.63;;;24.30;99.90;;;;;;5001785;28;20383;-82
2022/10/16 13:17:17;;;;;;;4.20;3.90;;;23.00;99.90;;;;;;5001855;28;20395;-81
2022/10/16 13:20:34;;;;;;;4.40;3.00;;;23.10;99.90;;;;;;5004229;28;20480;-80
2022/10/16 13:23:37;;;;;;;3.30;3.00;;;22.90;99.90;;;;;;5004120;28;20395;-79
2022/10/16 13:26:50;;;;;;;2.90;2.60;;;23.80;99.90;;;;;;5018342;28;20596;-80
2022/10/16 13:29:34;;;;;;;3.00;2.80;;;24.20;99.90;;;;;;5024577;28;20391;-80
2022/10/16 13:32:21;;;;;;;3.20;2.57;;;24.20;99.90;;;;;;5019532;28;20395;-80
2022/10/16 13:35:20;;;;;;;4.80;3.60;;;24.60;99.90;;;;;;5017206;28;20394;-79
2022/10/16 13:38:15;;;;;;;4.00;2.50;;;24.20;99.90;;;;;;5017944;28;20387;-82
2022/10/16 13:41:05;;;;;;;4.37;2.43;;;23.60;99.90;;;;;;5020782;28;20395;-83
2022/10/16 13:43:52;;;;;;;2.80;2.10;;;24.10;99.90;;;;;;5020791;28;20418;-80
2022/10/16 13:46:36;;;;;;;4.23;2.50;;;24.20;99.90;;;;;;5025505;28;20478;-82
2022/10/16 13:49:20;;;;;;;3.80;2.70;;;24.70;99.90;;;;;;5026879;28;20852;-80
2022/10/16 13:52:05;;;;;;;2.67;2.40;;;24.40;99.90;;;;;;5028334;28;20391;-82
2022/10/16 13:54:49;;;;;;;3.20;2.43;;;24.80;99.90;;;;;;5027444;28;20383;-81
2022/10/16 13:57:33;;;;;;;3.00;2.57;;;25.70;99.90;;;;;;5023897;28;20477;-82
2022/10/16 14:00:24;;;;;;;5.57;3.03;;;25.50;99.90;;;;;;5025325;28;20391;-81
2022/10/16 14:03:15;;;;;;;3.23;2.90;;;25.50;99.90;;;;;;5008887;28;20399;-78
2022/10/16 14:06:02;;;;;;;2.77;2.57;;;25.50;99.90;;;;;;5023652;28;20714;-82
2022/10/16 14:09:00;;;;;;;2.53;2.33;;;25.10;99.90;;;;;;5022720;28;20898;-80
2022/10/16 14:11:51;;;;;;;3.10;2.50;;;24.70;99.90;;;;;;5019769;28;20506;-77
2022/10/16 14:14:41;;;;;;;2.93;2.57;;;24.90;99.90;;;;;;5003924;28;20403;-80
2022/10/16 14:17:32;;;;;;;2.97;2.50;;;24.40;99.90;;;;;;5018699;28;20470;-81
2022/10/16 14:20:17;;;;;;;3.50;2.63;;;24.50;99.90;;;;;;5017918;28;20927;-80
2022/10/16 14:23:20;;;;;;;2.63;2.27;;;24.00;99.90;;;;;;5017861;28;20510;-83
2022/10/16 14:26:14;;;;;;;3.60;3.30;;;24.80;99.90;;;;;;5019307;28;20446;-81
2022/10/16 14:29:13;;;;;;;3.87;2.73;;;24.50;99.90;;;;;;5018528;28;20742;-81
2022/10/16 14:32:03;;;;;;;3.10;2.70;;;24.90;99.90;;;;;;5019214;28;20465;-81
2022/10/16 14:34:53;;;;;;;2.90;2.70;;;25.10;99.90;;;;;;5017814;28;20387;-81
2022/10/16 14:38:00;;;;;;;3.20;2.47;;;25.20;99.90;;;;;;5017933;28;20470;-81
2022/10/16 14:40:48;;;;;;;4.43;2.80;;;25.00;99.90;;;;;;4978398;28;20416;-81